Time;durP1;ratioP1;P1;durP2;ratioP2;P2;SDS_P1;SDS_P2;PMS_P1;PMS_P2;Temp;Humidity;BMP_temperature;BMP_pressure;BME280_temperature;BME280_humidity;BME280_pressure;Samples;Min_cycle;Max_cycle;Signal;HPM_P1;HPM_P2
2023/03/01 00:01:05;;;;;;;28.02;12.65;;;;;;;;;;4980128;28;20497;-82
2023/03/01 00:03:31;;;;;;;25.45;11.35;;;;;;;;;;4980147;28;20033;-83
2023/03/01 00:05:57;;;;;;;23.65;12.05;;;;;;;;;;4980580;28;20030;-82
2023/03/01 00:08:22;;;;;;;23.00;11.73;;;;;;;;;;4979426;28;20030;-81
2023/03/01 00:10:47;;;;;;;24.55;12.38;;;;;;;;;;4979573;28;20172;-81
2023/03/01 00:13:13;;;;;;;27.02;13.10;;;;;;;;;;4978211;28;20030;-81
2023/03/01 00:15:40;;;;;;;29.55;13.25;;;;;;;;;;4993943;28;20022;-82
2023/03/01 00:18:05;;;;;;;29.38;13.57;;;;;;;;;;4977567;28;20019;-81
2023/03/01 00:20:30;;;;;;;27.98;13.45;;;;;;;;;;4978291;28;20031;-82
2023/03/01 00:22:58;;;;;;;29.15;12.60;;;;;;;;;;4978616;28;20490;-81
2023/03/01 00:25:23;;;;;;;24.33;11.80;;;;;;;;;;4980354;28;20030;-81
2023/03/01 00:27:49;;;;;;;22.10;12.55;;;;;;;;;;4978974;28;20022;-81
2023/03/01 00:30:14;;;;;;;25.05;11.93;;;;;;;;;;4993577;28;20414;-82
2023/03/01 00:32:39;;;;;;;25.33;11.73;;;;;;;;;;4977398;28;20474;-83
2023/03/01 00:35:05;;;;;;;21.90;10.68;;;;;;;;;;4978475;28;20054;-82
2023/03/01 00:37:30;;;;;;;20.38;11.23;;;;;;;;;;4981268;28;20019;-82
2023/03/01 00:39:56;;;;;;;20.90;11.18;;;;;;;;;;4979106;28;20054;-81
2023/03/01 00:42:21;;;;;;;21.33;10.90;;;;;;;;;;4981104;28;20019;-82
2023/03/01 00:44:47;;;;;;;22.38;11.57;;;;;;;;;;4986877;28;20022;-83
2023/03/01 00:47:13;;;;;;;19.88;9.75;;;;;;;;;;4987337;28;20030;-82
2023/03/01 00:49:38;;;;;;;21.55;10.68;;;;;;;;;;4979539;28;20056;-82
2023/03/01 00:52:04;;;;;;;22.77;10.10;;;;;;;;;;4978273;28;20034;-82
2023/03/01 00:54:29;;;;;;;21.98;10.35;;;;;;;;;;4978383;28;20031;-81
2023/03/01 00:56:54;;;;;;;22.75;11.27;;;;;;;;;;4980865;28;20026;-82
2023/03/01 00:59:19;;;;;;;23.90;10.35;;;;;;;;;;5001835;28;20036;-83
2023/03/01 01:01:45;;;;;;;23.58;10.10;;;;;;;;;;4987198;28;20049;-82
2023/03/01 01:04:13;;;;;;;20.30;9.25;;;;;;;;;;4999499;28;20110;-82
2023/03/01 01:06:46;;;;;;;24.83;9.93;;;;;;;;;;4978110;28;20023;-81
2023/03/01 01:09:18;;;;;;;23.73;10.75;;;;;;;;;;4944217;28;1008142;-82
2023/03/01 01:11:45;;;;;;;20.35;10.15;;;;;;;;;;4977424;28;20023;-81
2023/03/01 01:14:11;;;;;;;24.60;10.60;;;;;;;;;;4978431;28;20501;-82
2023/03/01 01:16:37;;;;;;;24.63;11.07;;;;;;;;;;4977226;28;20030;-81
2023/03/01 01:19:02;;;;;;;17.30;9.13;;;;;;;;;;4978461;28;20031;-82
2023/03/01 01:21:29;;;;;;;19.55;10.00;;;;;;;;;;4981884;28;20035;-82
2023/03/01 01:23:55;;;;;;;22.02;11.13;;;;;;;;;;4979459;28;20040;-82
2023/03/01 01:26:32;;;;;;;23.30;9.57;;;;;;;;;;4992867;28;20529;-82
2023/03/01 01:28:57;;;;;;;23.63;11.05;;;;;;;;;;4978203;28;20487;-81
2023/03/01 01:31:24;;;;;;;20.80;10.00;;;;;;;;;;4979468;28;20041;-82
2023/03/01 01:33:50;;;;;;;22.02;10.90;;;;;;;;;;4982217;28;20055;-82
2023/03/01 01:36:16;;;;;;;22.33;10.65;;;;;;;;;;4982730;28;20477;-82
2023/03/01 01:38:42;;;;;;;21.58;10.02;;;;;;;;;;4982033;28;20050;-81
2023/03/01 01:41:11;;;;;;;23.10;10.73;;;;;;;;;;4981487;28;20027;-82
2023/03/01 01:43:40;;;;;;;21.13;10.80;;;;;;;;;;4980831;28;20497;-82
2023/03/01 01:46:26;;;;;;;18.83;9.68;;;;;;;;;;4980337;28;20019;-82
2023/03/01 01:49:02;;;;;;;22.25;11.02;;;;;;;;;;4985517;28;20050;-81
2023/03/01 01:51:38;;;;;;;24.08;10.77;;;;;;;;;;4980727;28;20398;-82
2023/03/01 01:54:09;;;;;;;21.27;10.38;;;;;;;;;;4981192;28;20077;-81
2023/03/01 01:56:37;;;;;;;20.25;10.18;;;;;;;;;;4981294;28;20031;-82
2023/03/01 01:59:03;;;;;;;23.33;10.88;;;;;;;;;;4981617;28;20034;-81
2023/03/01 02:01:28;;;;;;;24.40;10.45;;;;;;;;;;4981652;28;20461;-81
2023/03/01 02:03:53;;;;;;;20.73;10.23;;;;;;;;;;4981511;28;20022;-82
2023/03/01 02:06:29;;;;;;;24.55;11.45;;;;;;;;;;4981505;28;20034;-82
2023/03/01 02:08:59;;;;;;;23.70;10.15;;;;;;;;;;4983217;28;20038;-82
2023/03/01 02:11:25;;;;;;;21.42;10.05;;;;;;;;;;4991270;28;20023;-81
2023/03/01 02:13:52;;;;;;;23.48;10.15;;;;;;;;;;4991175;28;20058;-81
2023/03/01 02:16:17;;;;;;;22.98;10.55;;;;;;;;;;4988792;28;20389;-82
2023/03/01 02:18:43;;;;;;;19.00;10.57;;;;;;;;;;4984702;28;20046;-82
2023/03/01 02:21:32;;;;;;;20.15;10.48;;;;;;;;;;4985801;28;20038;-82
2023/03/01 02:24:04;;;;;;;24.73;11.63;;;;;;;;;;5000268;28;20529;-81
2023/03/01 02:26:41;;;;;;;19.23;9.70;;;;;;;;;;4983160;28;20509;-82
2023/03/01 02:29:07;;;;;;;21.00;10.65;;;;;;;;;;4991077;28;20082;-81
2023/03/01 02:31:41;;;;;;;19.45;10.27;;;;;;;;;;5017883;28;20023;-83
2023/03/01 02:34:08;;;;;;;24.95;10.95;;;;;;;;;;5002344;28;20057;-84
2023/03/01 02:36:39;;;;;;;18.38;9.80;;;;;;;;;;5002265;28;20035;-83
2023/03/01 02:39:14;;;;;;;21.20;10.13;;;;;;;;;;4982874;28;20059;-82
2023/03/01 02:41:42;;;;;;;19.85;10.23;;;;;;;;;;4979032;28;20023;-82
2023/03/01 02:44:08;;;;;;;19.25;9.75;;;;;;;;;;4978312;28;20023;-81
2023/03/01 02:46:33;;;;;;;19.80;10.13;;;;;;;;;;4981141;28;20059;-82
2023/03/01 02:48:58;;;;;;;20.13;10.18;;;;;;;;;;4981756;28;20041;-82
2023/03/01 02:51:33;;;;;;;18.77;9.63;;;;;;;;;;4980734;28;20041;-81
2023/03/01 02:54:11;;;;;;;18.67;10.05;;;;;;;;;;4996153;28;20069;-82
2023/03/01 02:56:37;;;;;;;18.63;9.68;;;;;;;;;;4981688;28;20027;-82
2023/03/01 02:59:03;;;;;;;23.15;10.23;;;;;;;;;;4981689;28;20398;-82
2023/03/01 03:01:37;;;;;;;17.67;9.38;;;;;;;;;;4980491;28;20030;-82
2023/03/01 03:04:09;;;;;;;19.27;9.63;;;;;;;;;;4997885;28;20019;-82
2023/03/01 03:06:35;;;;;;;17.42;9.02;;;;;;;;;;4982202;28;20034;-83
2023/03/01 03:09:00;;;;;;;18.80;9.35;;;;;;;;;;4983546;28;20035;-81
2023/03/01 03:11:25;;;;;;;20.83;9.15;;;;;;;;;;4984480;28;20030;-82
2023/03/01 03:13:51;;;;;;;18.65;9.35;;;;;;;;;;4984102;28;20109;-82
2023/03/01 03:16:17;;;;;;;18.90;9.93;;;;;;;;;;4984043;28;20037;-82
2023/03/01 03:18:42;;;;;;;20.67;9.13;;;;;;;;;;4984213;28;20027;-82
2023/03/01 03:21:10;;;;;;;20.45;9.60;;;;;;;;;;4982402;28;20062;-81
2023/03/01 03:23:36;;;;;;;18.50;8.07;;;;;;;;;;4981830;28;20464;-82
2023/03/01 03:26:03;;;;;;;19.05;8.80;;;;;;;;;;4997403;28;20082;-81
2023/03/01 03:28:30;;;;;;;15.73;8.93;;;;;;;;;;4981999;28;20029;-82
2023/03/01 03:30:55;;;;;;;20.00;9.93;;;;;;;;;;4981317;28;20030;-81
2023/03/01 03:33:20;;;;;;;18.45;9.63;;;;;;;;;;4981313;28;20019;-82
2023/03/01 03:35:49;;;;;;;25.30;10.52;;;;;;;;;;4981481;28;20034;-82
2023/03/01 03:38:16;;;;;;;19.00;10.23;;;;;;;;;;4981117;28;20054;-82
2023/03/01 03:40:50;;;;;;;24.08;10.13;;;;;;;;;;4981489;28;20049;-80
2023/03/01 03:43:21;;;;;;;22.00;9.63;;;;;;;;;;4980893;28;20023;-81
2023/03/01 03:45:49;;;;;;;17.50;9.23;;;;;;;;;;4980661;28;20058;-82
2023/03/01 03:48:15;;;;;;;19.52;9.75;;;;;;;;;;4982196;28;20098;-81
2023/03/01 03:50:40;;;;;;;20.10;10.82;;;;;;;;;;4987536;28;20608;-81
2023/03/01 03:53:09;;;;;;;23.23;10.50;;;;;;;;;;4989413;28;20019;-81
2023/03/01 03:55:35;;;;;;;19.05;9.45;;;;;;;;;;4990445;28;20056;-81
2023/03/01 03:58:06;;;;;;;20.45;10.55;;;;;;;;;;4986438;28;20042;-79
2023/03/01 04:00:36;;;;;;;17.50;9.35;;;;;;;;;;4978653;28;20050;-81
2023/03/01 04:03:01;;;;;;;21.17;10.55;;;;;;;;;;4994219;28;20022;-81
2023/03/01 04:05:27;;;;;;;21.95;10.50;;;;;;;;;;4978810;28;20085;-81
2023/03/01 04:08:01;;;;;;;18.25;10.38;;;;;;;;;;4978727;28;20122;-81
2023/03/01 04:10:28;;;;;;;20.33;9.57;;;;;;;;;;4979674;28;20022;-81
2023/03/01 04:12:55;;;;;;;19.35;9.57;;;;;;;;;;4979502;28;20026;-80
2023/03/01 04:15:23;;;;;;;18.83;9.85;;;;;;;;;;4980686;28;20038;-82
2023/03/01 04:17:49;;;;;;;19.23;10.15;;;;;;;;;;4980371;28;20478;-81
2023/03/01 04:20:17;;;;;;;19.05;10.27;;;;;;;;;;4979164;28;20035;-82
2023/03/01 04:22:46;;;;;;;23.42;10.52;;;;;;;;;;4977928;28;20018;-81
2023/03/01 04:25:13;;;;;;;25.30;10.98;;;;;;;;;;4977951;28;20049;-82
2023/03/01 04:27:39;;;;;;;18.88;9.90;;;;;;;;;;4977992;28;20077;-80
2023/03/01 04:30:05;;;;;;;20.13;9.57;;;;;;;;;;4993204;28;20030;-82
2023/03/01 04:32:30;;;;;;;17.30;9.32;;;;;;;;;;4978127;28;20041;-82
2023/03/01 04:34:55;;;;;;;18.77;9.68;;;;;;;;;;4978548;28;20027;-82
2023/03/01 04:37:21;;;;;;;23.25;10.63;;;;;;;;;;4980781;28;20050;-81
2023/03/01 04:39:47;;;;;;;25.23;10.80;;;;;;;;;;4989627;28;20065;-81
2023/03/01 04:42:12;;;;;;;18.90;9.32;;;;;;;;;;4985931;28;20023;-82
2023/03/01 04:44:37;;;;;;;19.73;9.43;;;;;;;;;;5001112;28;20513;-82
2023/03/01 04:47:03;;;;;;;20.08;9.82;;;;;;;;;;4994553;28;20030;-80
2023/03/01 04:49:28;;;;;;;20.65;10.32;;;;;;;;;;4980073;28;20026;-82
2023/03/01 04:51:53;;;;;;;21.02;10.20;;;;;;;;;;4981277;28;20069;-80
2023/03/01 04:54:19;;;;;;;18.45;9.13;;;;;;;;;;4978690;28;20495;-80
2023/03/01 04:56:44;;;;;;;25.65;10.90;;;;;;;;;;4979178;28;20035;-81
2023/03/01 04:59:09;;;;;;;20.65;9.85;;;;;;;;;;4992450;28;20052;-81
2023/03/01 05:01:35;;;;;;;18.35;9.48;;;;;;;;;;4993199;28;20027;-82
2023/03/01 05:04:02;;;;;;;21.52;9.43;;;;;;;;;;4996390;28;20026;-81
2023/03/01 05:06:28;;;;;;;25.25;9.80;;;;;;;;;;4985354;28;20110;-80
2023/03/01 05:08:53;;;;;;;17.77;8.82;;;;;;;;;;4997212;28;20070;-81
2023/03/01 05:11:19;;;;;;;18.45;9.10;;;;;;;;;;4980698;28;20023;-82
2023/03/01 05:13:44;;;;;;;21.17;9.48;;;;;;;;;;4998239;28;20026;-82
2023/03/01 05:16:10;;;;;;;18.50;9.57;;;;;;;;;;4983724;28;20037;-83
2023/03/01 05:18:37;;;;;;;19.08;9.35;;;;;;;;;;4998560;28;20026;-82
2023/03/01 05:21:05;;;;;;;22.20;9.70;;;;;;;;;;4982188;28;20031;-82
2023/03/01 05:23:31;;;;;;;17.40;9.30;;;;;;;;;;4996511;28;20042;-81
2023/03/01 05:26:01;;;;;;;20.35;9.20;;;;;;;;;;4993842;28;20050;-85
2023/03/01 05:28:28;;;;;;;19.95;9.95;;;;;;;;;;4999463;28;20015;-84
2023/03/01 05:30:53;;;;;;;18.52;9.75;;;;;;;;;;4998872;28;20014;-83
2023/03/01 05:33:18;;;;;;;20.83;10.43;;;;;;;;;;4998542;28;20042;-81
2023/03/01 05:35:45;;;;;;;18.15;9.02;;;;;;;;;;5003318;28;20058;-82
2023/03/01 05:38:15;;;;;;;20.33;9.75;;;;;;;;;;4979364;28;20041;-81
2023/03/01 05:40:45;;;;;;;19.27;9.52;;;;;;;;;;4993837;28;20276;-81
2023/03/01 05:43:12;;;;;;;21.90;10.10;;;;;;;;;;4994628;28;20025;-81
2023/03/01 05:45:38;;;;;;;20.65;10.50;;;;;;;;;;4979825;28;20077;-81
2023/03/01 05:48:05;;;;;;;22.58;9.93;;;;;;;;;;4979591;28;20098;-83
2023/03/01 05:50:36;;;;;;;20.02;9.75;;;;;;;;;;4982204;28;20027;-81
2023/03/01 05:53:05;;;;;;;20.02;10.05;;;;;;;;;;4997232;28;20394;-81
2023/03/01 05:55:31;;;;;;;20.42;10.55;;;;;;;;;;4981573;28;20590;-82
2023/03/01 05:58:02;;;;;;;24.27;9.75;;;;;;;;;;4978733;28;20079;-82
2023/03/01 06:00:29;;;;;;;24.30;9.95;;;;;;;;;;4994569;28;20034;-82
2023/03/01 06:02:55;;;;;;;23.67;9.52;;;;;;;;;;4981003;28;20094;-82
2023/03/01 06:05:22;;;;;;;21.30;9.90;;;;;;;;;;4980961;28;20085;-82
2023/03/01 06:07:48;;;;;;;21.95;9.80;;;;;;;;;;4979566;28;20037;-82
2023/03/01 06:10:14;;;;;;;18.73;9.70;;;;;;;;;;4980047;28;20023;-82
2023/03/01 06:12:41;;;;;;;23.05;9.77;;;;;;;;;;4980000;28;20489;-81
2023/03/01 06:15:09;;;;;;;21.63;9.90;;;;;;;;;;4981402;28;20054;-82
2023/03/01 06:17:38;;;;;;;21.40;9.88;;;;;;;;;;4982664;28;20504;-81
2023/03/01 06:20:05;;;;;;;18.45;8.93;;;;;;;;;;4999684;28;20022;-81
2023/03/01 06:22:31;;;;;;;20.05;9.50;;;;;;;;;;4986942;28;20038;-79
2023/03/01 06:24:56;;;;;;;17.92;8.60;;;;;;;;;;4987231;28;20041;-81
2023/03/01 06:27:21;;;;;;;22.27;8.65;;;;;;;;;;4986527;28;20053;-82
2023/03/01 06:29:46;;;;;;;17.90;9.30;;;;;;;;;;4987934;28;20022;-82
2023/03/01 06:32:11;;;;;;;20.75;9.50;;;;;;;;;;5001655;28;20038;-81
2023/03/01 06:34:37;;;;;;;21.30;8.77;;;;;;;;;;4987530;28;20023;-81
2023/03/01 06:37:04;;;;;;;16.58;8.30;;;;;;;;;;5000921;28;20031;-81
2023/03/01 06:39:30;;;;;;;21.08;9.10;;;;;;;;;;4985349;28;20105;-81
2023/03/01 06:41:56;;;;;;;16.20;7.55;;;;;;;;;;4984472;28;20094;-82
2023/03/01 06:44:21;;;;;;;19.65;9.23;;;;;;;;;;4985150;28;20019;-82
2023/03/01 06:46:46;;;;;;;21.98;10.57;;;;;;;;;;4984259;28;20090;-82
2023/03/01 06:49:12;;;;;;;18.05;9.50;;;;;;;;;;4982297;28;20074;-82
2023/03/01 06:51:37;;;;;;;19.17;8.57;;;;;;;;;;4983975;28;20401;-82
2023/03/01 06:54:04;;;;;;;23.73;8.82;;;;;;;;;;4999330;28;20454;-81
2023/03/01 06:56:30;;;;;;;13.88;7.47;;;;;;;;;;4983714;28;20069;-82
2023/03/01 06:58:55;;;;;;;18.80;9.55;;;;;;;;;;4983748;28;20027;-81
2023/03/01 07:01:20;;;;;;;16.67;7.18;;;;;;;;;;4983653;28;20085;-81
2023/03/01 07:03:46;;;;;;;18.08;9.23;;;;;;;;;;4990540;28;20053;-81
2023/03/01 07:06:11;;;;;;;18.75;8.95;;;;;;;;;;4987844;28;20034;-82
2023/03/01 07:08:36;;;;;;;17.38;8.80;;;;;;;;;;4989551;28;20413;-81
2023/03/01 07:11:03;;;;;;;17.90;7.93;;;;;;;;;;5005420;28;20030;-81
2023/03/01 07:13:28;;;;;;;16.58;8.32;;;;;;;;;;4986275;28;20437;-81
2023/03/01 07:15:53;;;;;;;24.33;8.85;;;;;;;;;;4983696;28;20038;-81
2023/03/01 07:18:19;;;;;;;17.52;8.68;;;;;;;;;;4983288;28;20031;-81
2023/03/01 07:20:44;;;;;;;16.83;8.75;;;;;;;;;;4998576;28;20506;-81
2023/03/01 07:23:10;;;;;;;18.00;8.85;;;;;;;;;;4999362;28;20018;-80
2023/03/01 07:25:38;;;;;;;16.60;8.95;;;;;;;;;;5000558;28;20022;-82
2023/03/01 07:28:03;;;;;;;20.02;9.30;;;;;;;;;;4986056;28;20030;-82
2023/03/01 07:30:29;;;;;;;14.80;8.52;;;;;;;;;;4983215;28;20085;-82
2023/03/01 07:32:56;;;;;;;20.88;8.88;;;;;;;;;;4983664;28;20014;-81
2023/03/01 07:35:22;;;;;;;22.42;9.45;;;;;;;;;;4982594;28;20059;-82
2023/03/01 07:37:47;;;;;;;19.00;9.10;;;;;;;;;;4982382;28;20061;-81
2023/03/01 07:40:13;;;;;;;18.73;8.93;;;;;;;;;;4981594;28;20054;-82
2023/03/01 07:42:38;;;;;;;19.55;8.52;;;;;;;;;;4981342;28;20027;-81
2023/03/01 07:45:05;;;;;;;15.48;8.32;;;;;;;;;;4982845;28;20053;-81
2023/03/01 07:47:30;;;;;;;16.00;7.88;;;;;;;;;;4982002;28;20383;-80
2023/03/01 07:49:55;;;;;;;24.20;8.52;;;;;;;;;;4982004;28;20109;-81
2023/03/01 07:52:21;;;;;;;18.52;8.68;;;;;;;;;;5000797;28;20030;-81
2023/03/01 07:54:46;;;;;;;16.92;8.68;;;;;;;;;;4983114;28;20050;-81
2023/03/01 07:57:11;;;;;;;17.67;8.98;;;;;;;;;;4983155;28;20042;-81
2023/03/01 07:59:36;;;;;;;16.23;9.07;;;;;;;;;;4983305;28;20019;-81
2023/03/01 08:02:02;;;;;;;18.50;9.40;;;;;;;;;;4983210;28;20034;-81
2023/03/01 08:04:27;;;;;;;15.40;8.30;;;;;;;;;;4983413;28;20026;-82
2023/03/01 08:06:54;;;;;;;24.38;9.18;;;;;;;;;;4999202;28;20090;-82
2023/03/01 08:09:19;;;;;;;19.85;9.05;;;;;;;;;;4983529;28;20089;-81
2023/03/01 08:11:44;;;;;;;20.10;8.18;;;;;;;;;;4983020;28;20023;-81
2023/03/01 08:14:13;;;;;;;18.73;10.15;;;;;;;;;;4983129;28;20034;-82
2023/03/01 08:16:38;;;;;;;20.52;10.23;;;;;;;;;;4989366;28;20022;-82
2023/03/01 08:19:09;;;;;;;21.50;9.35;;;;;;;;;;4995696;28;20046;-81
2023/03/01 08:21:34;;;;;;;18.10;9.30;;;;;;;;;;5010536;28;20026;-81
2023/03/01 08:24:10;;;;;;;24.25;9.98;;;;;;;;;;4999140;28;20336;-81
2023/03/01 08:26:38;;;;;;;17.15;9.07;;;;;;;;;;4987562;28;20057;-80
2023/03/01 08:29:04;;;;;;;18.98;10.15;;;;;;;;;;4986830;28;20031;-83
2023/03/01 08:31:35;;;;;;;21.35;9.88;;;;;;;;;;4981181;28;20051;-81
2023/03/01 08:34:02;;;;;;;19.73;10.15;;;;;;;;;;4981826;28;20034;-80
2023/03/01 08:36:34;;;;;;;19.10;10.40;;;;;;;;;;4981247;28;20030;-80
2023/03/01 08:39:00;;;;;;;18.33;10.18;;;;;;;;;;4983497;28;20073;-81
2023/03/01 08:41:25;;;;;;;21.15;10.40;;;;;;;;;;4983434;28;20074;-80
2023/03/01 08:43:52;;;;;;;22.13;10.07;;;;;;;;;;4983272;28;20030;-82
2023/03/01 08:46:17;;;;;;;23.75;10.73;;;;;;;;;;4998952;28;20050;-81
2023/03/01 08:48:45;;;;;;;18.60;8.98;;;;;;;;;;4984067;28;20030;-81
2023/03/01 08:51:15;;;;;;;23.27;9.60;;;;;;;;;;4984098;28;20034;-81
2023/03/01 08:53:40;;;;;;;21.83;10.10;;;;;;;;;;4983405;28;20030;-80
2023/03/01 08:56:07;;;;;;;21.23;10.32;;;;;;;;;;5000225;28;20026;-80
2023/03/01 08:58:33;;;;;;;19.73;10.45;;;;;;;;;;4986194;28;20058;-82
2023/03/01 09:00:58;;;;;;;23.27;11.07;;;;;;;;;;4987476;28;20039;-82
2023/03/01 09:03:24;;;;;;;20.13;10.93;;;;;;;;;;4987290;28;20433;-82
2023/03/01 09:05:51;;;;;;;28.85;11.80;;;;;;;;;;4987498;28;20030;-81
2023/03/01 09:08:17;;;;;;;25.00;10.73;;;;;;;;;;4988194;28;20053;-81
2023/03/01 09:10:42;;;;;;;18.23;9.02;;;;;;;;;;4988744;28;20031;-81
2023/03/01 09:13:08;;;;;;;23.67;11.77;;;;;;;;;;4989153;28;20034;-82
2023/03/01 09:15:33;;;;;;;22.15;11.02;;;;;;;;;;4988923;28;20106;-82
2023/03/01 09:17:59;;;;;;;25.60;11.80;;;;;;;;;;5004109;28;20018;-83
2023/03/01 09:20:24;;;;;;;28.58;11.10;;;;;;;;;;4989358;28;20332;-82
2023/03/01 09:22:49;;;;;;;22.30;11.05;;;;;;;;;;4989510;28;20015;-81
2023/03/01 09:25:15;;;;;;;23.40;11.00;;;;;;;;;;4987928;28;20068;-82
2023/03/01 09:27:40;;;;;;;22.90;11.07;;;;;;;;;;4988390;28;20037;-81
2023/03/01 09:30:06;;;;;;;24.83;11.00;;;;;;;;;;4986813;28;20033;-81
2023/03/01 09:32:31;;;;;;;23.42;11.60;;;;;;;;;;4989933;28;20051;-81
2023/03/01 09:35:05;;;;;;;23.02;11.60;;;;;;;;;;4989215;28;20035;-82
2023/03/01 09:37:33;;;;;;;25.52;11.57;;;;;;;;;;4988930;28;20049;-83
2023/03/01 09:39:58;;;;;;;22.02;12.05;;;;;;;;;;4990122;28;20030;-82
2023/03/01 09:42:24;;;;;;;25.25;11.75;;;;;;;;;;4989926;28;20090;-81
2023/03/01 09:45:00;;;;;;;23.92;12.55;;;;;;;;;;4988817;28;20034;-81
2023/03/01 09:47:32;;;;;;;27.80;12.18;;;;;;;;;;4989137;28;20053;-84
2023/03/01 09:50:19;;;;;;;23.13;11.52;;;;;;;;;;4988938;28;20030;-83
2023/03/01 09:53:00;;;;;;;33.53;12.57;;;;;;;;;;4988246;28;20398;-83
2023/03/01 09:55:33;;;;;;;31.05;11.57;;;;;;;;;;4984002;28;20054;-83
2023/03/01 09:58:24;;;;;;;23.27;11.88;;;;;;;;;;4986182;28;20023;-81
2023/03/01 10:00:50;;;;;;;25.83;11.40;;;;;;;;;;4987577;28;20033;-82
2023/03/01 10:03:36;;;;;;;25.30;11.63;;;;;;;;;;4987382;28;20030;-82
2023/03/01 10:06:10;;;;;;;24.88;11.73;;;;;;;;;;4987773;28;20498;-82
2023/03/01 10:08:43;;;;;;;28.08;11.50;;;;;;;;;;4987070;28;20049;-82
2023/03/01 10:11:21;;;;;;;27.23;12.52;;;;;;;;;;4985855;28;20061;-81
2023/03/01 10:14:26;;;;;;;25.60;11.85;;;;;;;;;;4984558;28;20042;-81
2023/03/01 10:17:02;;;;;;;22.52;11.45;;;;;;;;;;4987654;28;20504;-82
2023/03/01 10:19:30;;;;;;;24.17;11.02;;;;;;;;;;4985936;28;20038;-82
2023/03/01 10:22:17;;;;;;;24.95;11.43;;;;;;;;;;4986318;28;20019;-82
2023/03/01 10:24:43;;;;;;;23.58;11.55;;;;;;;;;;4992732;28;20027;-81
2023/03/01 10:27:20;;;;;;;24.83;12.10;;;;;;;;;;5008089;28;20027;-81
2023/03/01 10:30:03;;;;;;;21.45;11.70;;;;;;;;;;4993421;28;20027;-83
2023/03/01 10:32:29;;;;;;;21.83;11.20;;;;;;;;;;4992798;28;20057;-83
2023/03/01 10:34:54;;;;;;;21.45;11.18;;;;;;;;;;4992522;28;20031;-82
2023/03/01 10:37:22;;;;;;;22.20;11.35;;;;;;;;;;4992870;28;20038;-82
2023/03/01 10:40:08;;;;;;;21.08;11.02;;;;;;;;;;4993232;28;20031;-82
2023/03/01 10:42:37;;;;;;;18.80;8.55;;;;;;;;;;4992968;28;20094;-83
2023/03/01 10:45:26;;;;;;;19.23;9.60;;;;;;;;;;4992636;28;20034;-82
2023/03/01 10:48:13;;;;;;;17.13;8.63;;;;;;;;;;4997523;28;20034;-83
2023/03/01 10:50:40;;;;;;;18.38;9.40;;;;;;;;;;4992233;28;20086;-82
2023/03/01 10:53:21;;;;;;;21.77;10.18;;;;;;;;;;5007807;28;20058;-83
2023/03/01 10:55:46;;;;;;;23.70;9.38;;;;;;;;;;5006674;28;20031;-83
2023/03/01 10:58:14;;;;;;;13.73;7.22;;;;;;;;;;4990940;28;20512;-82
2023/03/01 11:00:55;;;;;;;12.48;5.88;;;;;;;;;;4991712;28;20561;-82
2023/03/01 11:03:35;;;;;;;24.08;9.55;;;;;;;;;;4991267;28;20023;-83
2023/03/01 11:06:13;;;;;;;33.90;10.15;;;;;;;;;;5006515;28;20050;-82
2023/03/01 11:08:46;;;;;;;19.25;10.25;;;;;;;;;;4990119;28;20053;-81
2023/03/01 11:11:12;;;;;;;;;;;;;;;;;;4991177;28;20030;-83
2023/03/01 11:13:50;;;;;;;13.88;7.45;;;;;;;;;;4990507;28;19910;-82
2023/03/01 11:16:24;;;;;;;13.73;6.90;;;;;;;;;;5006153;28;20524;-82
2023/03/01 11:19:16;;;;;;;17.30;8.98;;;;;;;;;;4990946;28;20042;-83
2023/03/01 11:21:50;;;;;;;15.60;7.35;;;;;;;;;;4989970;28;20047;-82
2023/03/01 11:24:18;;;;;;;17.45;8.02;;;;;;;;;;4989696;28;20033;-82
2023/03/01 11:26:47;;;;;;;18.85;9.68;;;;;;;;;;4991098;28;20026;-82
2023/03/01 11:29:50;;;;;;;15.50;8.18;;;;;;;;;;4991576;28;20031;-82
2023/03/01 11:32:17;;;;;;;17.80;8.25;;;;;;;;;;5006335;28;20030;-82
2023/03/01 11:35:05;;;;;;;16.23;7.97;;;;;;;;;;4990503;28;20058;-80
2023/03/01 11:37:42;;;;;;;19.27;8.82;;;;;;;;;;4987791;28;20050;-82
2023/03/01 11:40:12;;;;;;;24.13;8.73;;;;;;;;;;4987735;28;20090;-82
2023/03/01 11:42:51;;;;;;;15.07;7.60;;;;;;;;;;4986681;28;20090;-83
2023/03/01 11:45:17;;;;;;;14.13;7.28;;;;;;;;;;4986684;28;20068;-83
2023/03/01 11:47:47;;;;;;;14.43;7.38;;;;;;;;;;5000729;28;20038;-83
2023/03/01 11:50:39;;;;;;;15.75;7.68;;;;;;;;;;5000925;28;20103;-82
2023/03/01 11:53:33;;;;;;;16.13;8.35;;;;;;;;;;4999561;28;20058;-83
2023/03/01 11:56:09;;;;;;;14.23;6.57;;;;;;;;;;4989892;28;20031;-82
2023/03/01 11:58:52;;;;;;;7.60;4.15;;;;;;;;;;4981520;28;20038;-82
2023/03/01 12:01:39;;;;;;;10.90;5.10;;;;;;;;;;4983365;28;20419;-82
2023/03/01 12:04:23;;;;;;;9.32;4.80;;;;;;;;;;4983806;28;20027;-82
2023/03/01 12:07:00;;;;;;;;;;;;;;;;;;4983337;28;20023;-81
2023/03/01 12:09:44;;;;;;;;;;;;;;;;;;4996895;28;19914;-82
2023/03/01 12:12:38;;;;;;;;;;;;;;;;;;4981279;28;19910;-82
2023/03/01 12:15:06;;;;;;;;;;;;;;;;;;4972872;28;19914;-82
2023/03/01 12:17:31;;;;;;;;;;;;;;;;;;4982147;28;19910;-82
2023/03/01 12:20:09;;;;;;;;;;;;;;;;;;4997472;28;20465;-83
2023/03/01 12:22:38;;;;;;;;;;;;;;;;;;4981607;28;19917;-82
2023/03/01 12:25:13;;;;;;;;;;;;;;;;;;4982078;28;19917;-81
2023/03/01 12:27:56;;;;;;;;;;;;;;;;;;4997525;28;20261;-81
2023/03/01 12:30:26;;;;;;;;;;;;;;;;;;4996162;28;19917;-81
2023/03/01 12:33:15;;;;;;;;;;;;;;;;;;4996716;28;20361;-81
2023/03/01 12:35:59;;;;;;;;;;;;;;;;;;4981576;28;20285;-81
2023/03/01 12:38:34;;;;;;;;;;;;;;;;;;4982195;28;19970;-81
2023/03/01 12:41:08;;;;;;;;;;;;;;;;;;4983341;28;19917;-82
2023/03/01 12:43:33;;;;;;;;;;;;;;;;;;4983339;28;20388;-82
2023/03/01 12:46:05;;;;;;;;;;;;;;;;;;4985262;28;19910;-80
2023/03/01 12:48:56;;;;;;;;;;;;;;;;;;4984688;28;19910;-82
2023/03/01 12:51:26;;;;;;;;;;;;;;;;;;4978712;28;19918;-82
2023/03/01 12:53:52;;;;;;;;;;;;;;;;;;4985855;28;19972;-82
2023/03/01 12:56:21;;;;;;;;;;;;;;;;;;4984570;28;19917;-82
2023/03/01 12:58:46;;;;;;;;;;;;;;;;;;4985589;28;19916;-82
2023/03/01 13:01:26;;;;;;;;;;;;;;;;;;4987757;28;19977;-82
2023/03/01 13:04:01;;;;;;;;;;;;;;;;;;5003765;28;19914;-82
2023/03/01 13:06:32;;;;;;;;;;;;;;;;;;4988024;28;19910;-81
2023/03/01 13:09:01;;;;;;;;;;;;;;;;;;4988826;28;19914;-82
2023/03/01 13:11:26;;;;;;;;;;;;;;;;;;4988179;28;19917;-82
2023/03/01 13:13:54;;;;;;;;;;;;;;;;;;4986622;28;20273;-83
2023/03/01 13:16:28;;;;;;;;;;;;;;;;;;4989075;28;19918;-81
2023/03/01 13:19:06;;;;;;;;;;;;;;;;;;4987560;28;19937;-82
2023/03/01 13:21:31;;;;;;;;;;;;;;;;;;4990289;28;19973;-81
2023/03/01 13:23:56;;;;;;;;;;;;;;;;;;4990260;28;20384;-81
2023/03/01 13:26:21;;;;;;;;;;;;;;;;;;4989765;28;19916;-81
2023/03/01 13:28:48;;;;;;;;;;;;;;;;;;4993228;28;20085;-81
2023/03/01 13:31:19;;;;;;;;;;;;;;;;;;5008964;28;20286;-81
2023/03/01 13:33:54;;;;;;;;;;;;;;;;;;5009216;28;19914;-83
2023/03/01 13:36:29;;;;;;;;;;;;;;;;;;4994724;28;19910;-82
2023/03/01 13:38:54;;;;;;;;;;;;;;;;;;4992456;28;19990;-81
2023/03/01 13:41:38;;;;;;;;;;;;;;;;;;4992080;28;20293;-82
2023/03/01 13:44:11;;;;;;;;;;;;;;;;;;5008565;28;19942;-82
2023/03/01 13:46:38;;;;;;;;;;;;;;;;;;5008114;28;19978;-83
2023/03/01 13:49:03;;;;;;;;;;;;;;;;;;4993151;28;19917;-81
2023/03/01 13:51:28;;;;;;;;;;;;;;;;;;4992225;28;20289;-82
2023/03/01 13:53:55;;;;;;;;;;;;;;;;;;4994212;28;19914;-82
2023/03/01 13:56:27;;;;;;;;;;;;;;;;;;4992415;28;20034;-82
2023/03/01 13:58:54;;;;;;;;;;;;;;;;;;4992950;28;19974;-83
2023/03/01 14:01:21;;;;;;;;;;;;;;;;;;5005376;28;19951;-82
2023/03/01 14:03:46;;;;;;;;;;;;;;;;;;4990647;28;19992;-82
2023/03/01 14:06:17;;;;;;;;;;;;;;;;;;4992639;28;19910;-82
2023/03/01 14:08:43;;;;;;;;;;;;;;;;;;4992889;28;19945;-82
2023/03/01 14:11:29;;;;;;;;;;;;;;;;;;4992995;28;19910;-82
2023/03/01 14:14:10;;;;;;;;;;;;;;;;;;4992293;28;19925;-81
2023/03/01 14:16:44;;;;;;;;;;;;;;;;;;4993187;28;19910;-82
2023/03/01 14:19:26;;;;;;;;;;;;;;;;;;4992394;28;19917;-82
2023/03/01 14:22:00;;;;;;;;;;;;;;;;;;5008446;28;19914;-82
2023/03/01 14:24:28;;;;;;;;;;;;;;;;;;4992627;28;19910;-81
2023/03/01 14:26:53;;;;;;;;;;;;;;;;;;4992810;28;19910;-82
2023/03/01 14:29:34;;;;;;;;;;;;;;;;;;4991657;28;19917;-82
2023/03/01 14:32:10;;;;;;;;;;;;;;;;;;4992832;28;19910;-82
2023/03/01 14:34:35;;;;;;;;;;;;;;;;;;4990906;28;19914;-81
2023/03/01 14:37:19;;;;;;;;;;;;;;;;;;4991965;28;20012;-82
2023/03/01 14:39:44;;;;;;;;;;;;;;;;;;4990893;28;19948;-82
2023/03/01 14:42:09;;;;;;;;;;;;;;;;;;4991053;28;19909;-82
2023/03/01 14:44:37;;;;;;;;;;;;;;;;;;4993791;28;19958;-83
2023/03/01 14:47:03;;;;;;;;;;;;;;;;;;4991180;28;19989;-83
2023/03/01 14:49:29;;;;;;;;;;;;;;;;;;4992498;28;19986;-82
2023/03/01 14:52:05;;;;;;;;;;;;;;;;;;4991783;28;19910;-82
2023/03/01 14:54:40;;;;;;;;;;;;;;;;;;4991484;28;19921;-81
2023/03/01 14:57:05;;;;;;;;;;;;;;;;;;4992363;28;19981;-81
2023/03/01 14:59:32;;;;;;;;;;;;;;;;;;4990893;28;19995;-82
2023/03/01 15:01:58;;;;;;;;;;;;;;;;;;4990300;28;19909;-81